共通カテゴリ
エリアから探す

  質問

回答数1

投稿日時:2009/5/14 13:13


気温差がすごい激しいと思うのですが、 KPHX 141951Z VRB04KT 10SM CLR 36/M02 A2979 RMK AO2 SLP067 T03611017


このフェニックススカイハーバー空港の気象状況なのですが、気温が36度に対して零度がマイナス2度ですか??

気温差がそれも38度ですか?? このアリゾナ州のフェニックスという都市はそういう街なのですか??
回答投稿日時:2009/5/14 18:01
Phoenixは現在37.8℃ですが、
周辺地域の週間予報では、
Sun City40~22℃
Queen Creek40~22℃
Apache Junction40~22℃
となっています。